EYSA

Šiauliai International Airport

Šiauliai, Lithuania
METAR EYSA 260350Z 10006KT CAVOK 15/11 Q1028 BLU NOSIG
Observed Flight Rules
May-26 @ 03:50 UTC (33 minutes ago) Visual Flight Rules
Wind Visibility Clouds
100° at 6 knots 10,000+ meters
  • Clear skies
Temperatures Readings
Current 15°C / 59°F
Dewpoint 11°C / 52°F
Humidity 77%
Altimeter 30.35" Hg
Pressure 1028 hPa
Elevation 135
METAR EYSA 260350Z 10006KT CAVOK 15/11 Q1028 BLU NOSIG
Observed Flight Rules
May-26 @ 03:50 UTC
(33 minutes ago)
VFR
Wind Visibility
100° at 6 knots 10,000+ meters
Clouds
  • Clear skies
Temperature Dewpoint
15°C / 59°F 11°C / 52°F
Humidity Altimeter Pressure
77% 30.35" Hg 1028 hPa